sensor_id;sensor_type;location;lat;lon;timestamp;P1;durP1;ratioP1;P2;durP2;ratioP2
20114;SDS011;10218;42.874;25.320;2022-10-15T00:01:07;14.33;;;9.27;;
20114;SDS011;10218;42.874;25.320;2022-10-15T00:03:40;15.40;;;9.90;;
20114;SDS011;10218;42.874;25.320;2022-10-15T00:06:10;14.73;;;9.23;;
20114;SDS011;10218;42.874;25.320;2022-10-15T00:08:39;14.50;;;10.00;;
20114;SDS011;10218;42.874;25.320;2022-10-15T00:11:08;15.00;;;10.07;;
20114;SDS011;10218;42.874;25.320;2022-10-15T00:13:42;16.43;;;10.23;;
20114;SDS011;10218;42.874;25.320;2022-10-15T00:16:13;21.07;;;10.30;;
20114;SDS011;10218;42.874;25.320;2022-10-15T00:18:43;16.57;;;9.30;;
20114;SDS011;10218;42.874;25.320;2022-10-15T00:21:12;15.67;;;9.20;;
20114;SDS011;10218;42.874;25.320;2022-10-15T00:23:41;12.73;;;8.60;;
20114;SDS011;10218;42.874;25.320;2022-10-15T00:26:10;13.67;;;8.93;;
20114;SDS011;10218;42.874;25.320;2022-10-15T00:28:39;17.13;;;9.37;;
20114;SDS011;10218;42.874;25.320;2022-10-15T00:31:08;16.87;;;11.23;;
20114;SDS011;10218;42.874;25.320;2022-10-15T00:33:38;20.87;;;13.27;;
20114;SDS011;10218;42.874;25.320;2022-10-15T00:36:07;17.77;;;11.13;;
20114;SDS011;10218;42.874;25.320;2022-10-15T00:38:40;16.07;;;9.40;;
20114;SDS011;10218;42.874;25.320;2022-10-15T00:41:10;14.03;;;8.90;;
20114;SDS011;10218;42.874;25.320;2022-10-15T00:43:49;15.23;;;9.60;;
20114;SDS011;10218;42.874;25.320;2022-10-15T00:48:59;22.87;;;12.03;;
20114;SDS011;10218;42.874;25.320;2022-10-15T00:51:52;38.37;;;12.70;;
20114;SDS011;10218;42.874;25.320;2022-10-15T00:54:24;23.97;;;13.33;;
20114;SDS011;10218;42.874;25.320;2022-10-15T00:56:53;21.57;;;13.03;;
20114;SDS011;10218;42.874;25.320;2022-10-15T00:59:22;24.23;;;12.90;;
20114;SDS011;10218;42.874;25.320;2022-10-15T01:01:53;27.70;;;13.47;;
20114;SDS011;10218;42.874;25.320;2022-10-15T01:04:21;26.80;;;12.57;;
20114;SDS011;10218;42.874;25.320;2022-10-15T01:06:49;20.97;;;12.47;;
20114;SDS011;10218;42.874;25.320;2022-10-15T01:09:17;19.80;;;12.23;;
20114;SDS011;10218;42.874;25.320;2022-10-15T01:11:48;18.70;;;11.23;;
20114;SDS011;10218;42.874;25.320;2022-10-15T01:14:31;17.23;;;11.37;;
20114;SDS011;10218;42.874;25.320;2022-10-15T01:19:55;15.77;;;10.00;;
20114;SDS011;10218;42.874;25.320;2022-10-15T01:28:42;15.57;;;9.93;;
20114;SDS011;10218;42.874;25.320;2022-10-15T01:31:30;16.67;;;9.87;;
20114;SDS011;10218;42.874;25.320;2022-10-15T01:34:06;13.07;;;9.10;;
20114;SDS011;10218;42.874;25.320;2022-10-15T01:37:01;11.90;;;8.90;;
20114;SDS011;10218;42.874;25.320;2022-10-15T01:39:31;12.03;;;8.87;;
20114;SDS011;10218;42.874;25.320;2022-10-15T01:42:02;16.87;;;9.27;;
20114;SDS011;10218;42.874;25.320;2022-10-15T01:44:39;17.77;;;10.50;;
20114;SDS011;10218;42.874;25.320;2022-10-15T01:47:13;15.03;;;10.00;;
20114;SDS011;10218;42.874;25.320;2022-10-15T01:49:47;14.50;;;10.50;;
20114;SDS011;10218;42.874;25.320;2022-10-15T01:52:18;17.00;;;11.03;;
20114;SDS011;10218;42.874;25.320;2022-10-15T01:54:49;15.93;;;10.37;;
20114;SDS011;10218;42.874;25.320;2022-10-15T01:57:19;13.70;;;9.67;;
20114;SDS011;10218;42.874;25.320;2022-10-15T01:59:49;12.67;;;8.73;;
20114;SDS011;10218;42.874;25.320;2022-10-15T02:02:16;13.83;;;9.13;;
20114;SDS011;10218;42.874;25.320;2022-10-15T02:04:43;13.63;;;9.53;;
20114;SDS011;10218;42.874;25.320;2022-10-15T02:09:59;12.83;;;8.57;;
20114;SDS011;10218;42.874;25.320;2022-10-15T02:12:30;12.60;;;8.13;;
20114;SDS011;10218;42.874;25.320;2022-10-15T02:20:49;13.27;;;8.20;;
20114;SDS011;10218;42.874;25.320;2022-10-15T02:23:27;11.60;;;9.00;;
20114;SDS011;10218;42.874;25.320;2022-10-15T02:26:12;12.30;;;9.30;;
20114;SDS011;10218;42.874;25.320;2022-10-15T02:28:42;13.50;;;9.60;;
20114;SDS011;10218;42.874;25.320;2022-10-15T02:31:12;14.87;;;9.77;;
20114;SDS011;10218;42.874;25.320;2022-10-15T02:33:42;12.50;;;8.87;;
20114;SDS011;10218;42.874;25.320;2022-10-15T02:36:11;12.30;;;8.27;;
20114;SDS011;10218;42.874;25.320;2022-10-15T02:38:39;14.33;;;8.97;;
20114;SDS011;10218;42.874;25.320;2022-10-15T02:41:11;12.03;;;7.97;;
20114;SDS011;10218;42.874;25.320;2022-10-15T02:43:39;11.17;;;7.37;;
20114;SDS011;10218;42.874;25.320;2022-10-15T02:46:06;11.73;;;8.07;;
20114;SDS011;10218;42.874;25.320;2022-10-15T02:48:38;11.90;;;8.00;;
20114;SDS011;10218;42.874;25.320;2022-10-15T02:51:06;13.53;;;7.50;;
20114;SDS011;10218;42.874;25.320;2022-10-15T02:53:34;12.97;;;8.80;;
20114;SDS011;10218;42.874;25.320;2022-10-15T02:56:02;20.53;;;8.50;;
20114;SDS011;10218;42.874;25.320;2022-10-15T02:58:30;11.37;;;7.63;;
20114;SDS011;10218;42.874;25.320;2022-10-15T03:00:56;11.50;;;7.83;;
20114;SDS011;10218;42.874;25.320;2022-10-15T03:03:24;12.30;;;7.83;;
20114;SDS011;10218;42.874;25.320;2022-10-15T03:05:51;14.37;;;8.43;;
20114;SDS011;10218;42.874;25.320;2022-10-15T03:08:18;17.23;;;9.07;;
20114;SDS011;10218;42.874;25.320;2022-10-15T03:10:46;16.97;;;9.20;;
20114;SDS011;10218;42.874;25.320;2022-10-15T03:13:14;13.00;;;8.63;;
20114;SDS011;10218;42.874;25.320;2022-10-15T03:15:41;13.93;;;9.13;;
20114;SDS011;10218;42.874;25.320;2022-10-15T03:18:08;15.67;;;9.40;;
20114;SDS011;10218;42.874;25.320;2022-10-15T03:20:36;14.93;;;10.00;;
20114;SDS011;10218;42.874;25.320;2022-10-15T03:23:03;15.53;;;9.87;;
20114;SDS011;10218;42.874;25.320;2022-10-15T03:25:30;13.80;;;9.80;;
20114;SDS011;10218;42.874;25.320;2022-10-15T03:27:58;16.87;;;9.93;;
20114;SDS011;10218;42.874;25.320;2022-10-15T03:30:27;17.30;;;10.23;;
20114;SDS011;10218;42.874;25.320;2022-10-15T03:32:54;17.63;;;10.37;;
20114;SDS011;10218;42.874;25.320;2022-10-15T03:35:21;18.27;;;11.20;;
20114;SDS011;10218;42.874;25.320;2022-10-15T03:37:48;22.07;;;12.03;;
20114;SDS011;10218;42.874;25.320;2022-10-15T03:40:15;19.00;;;10.47;;
20114;SDS011;10218;42.874;25.320;2022-10-15T03:42:42;18.10;;;10.30;;
20114;SDS011;10218;42.874;25.320;2022-10-15T03:45:10;13.80;;;9.40;;
20114;SDS011;10218;42.874;25.320;2022-10-15T03:47:38;15.33;;;9.93;;
20114;SDS011;10218;42.874;25.320;2022-10-15T03:50:06;16.57;;;10.07;;
20114;SDS011;10218;42.874;25.320;2022-10-15T03:52:35;16.17;;;10.63;;
20114;SDS011;10218;42.874;25.320;2022-10-15T03:55:03;15.40;;;10.40;;
20114;SDS011;10218;42.874;25.320;2022-10-15T03:57:31;17.50;;;11.50;;
20114;SDS011;10218;42.874;25.320;2022-10-15T03:59:59;18.33;;;11.90;;
20114;SDS011;10218;42.874;25.320;2022-10-15T04:02:29;15.03;;;10.43;;
20114;SDS011;10218;42.874;25.320;2022-10-15T04:04:57;31.97;;;13.47;;
20114;SDS011;10218;42.874;25.320;2022-10-15T04:07:25;24.87;;;13.23;;
20114;SDS011;10218;42.874;25.320;2022-10-15T04:09:52;19.50;;;11.97;;
20114;SDS011;10218;42.874;25.320;2022-10-15T04:12:19;17.00;;;11.10;;
20114;SDS011;10218;42.874;25.320;2022-10-15T04:14:47;15.43;;;9.97;;
20114;SDS011;10218;42.874;25.320;2022-10-15T04:17:14;15.40;;;10.10;;
20114;SDS011;10218;42.874;25.320;2022-10-15T04:19:42;14.97;;;9.53;;
20114;SDS011;10218;42.874;25.320;2022-10-15T04:22:09;14.47;;;10.10;;
20114;SDS011;10218;42.874;25.320;2022-10-15T04:24:37;13.23;;;9.70;;
20114;SDS011;10218;42.874;25.320;2022-10-15T04:27:04;18.10;;;11.30;;
20114;SDS011;10218;42.874;25.320;2022-10-15T04:29:31;12.23;;;9.30;;
20114;SDS011;10218;42.874;25.320;2022-10-15T04:32:05;17.07;;;10.00;;
20114;SDS011;10218;42.874;25.320;2022-10-15T04:34:32;13.07;;;9.73;;
20114;SDS011;10218;42.874;25.320;2022-10-15T04:37:00;36.27;;;9.77;;
20114;SDS011;10218;42.874;25.320;2022-10-15T04:39:27;12.37;;;9.50;;
20114;SDS011;10218;42.874;25.320;2022-10-15T04:41:55;12.83;;;8.37;;
20114;SDS011;10218;42.874;25.320;2022-10-15T04:44:23;11.93;;;9.07;;
20114;SDS011;10218;42.874;25.320;2022-10-15T04:46:51;13.07;;;9.07;;
20114;SDS011;10218;42.874;25.320;2022-10-15T04:49:19;11.93;;;8.27;;
20114;SDS011;10218;42.874;25.320;2022-10-15T04:51:46;11.83;;;8.80;;
20114;SDS011;10218;42.874;25.320;2022-10-15T04:54:13;13.53;;;9.67;;
20114;SDS011;10218;42.874;25.320;2022-10-15T04:56:45;14.43;;;8.90;;
20114;SDS011;10218;42.874;25.320;2022-10-15T04:59:12;13.63;;;10.23;;
20114;SDS011;10218;42.874;25.320;2022-10-15T05:01:44;16.07;;;10.93;;
20114;SDS011;10218;42.874;25.320;2022-10-15T05:04:13;16.70;;;11.43;;
20114;SDS011;10218;42.874;25.320;2022-10-15T05:06:41;19.07;;;11.37;;
20114;SDS011;10218;42.874;25.320;2022-10-15T05:09:12;20.80;;;12.37;;
20114;SDS011;10218;42.874;25.320;2022-10-15T05:11:41;17.73;;;12.37;;
20114;SDS011;10218;42.874;25.320;2022-10-15T05:14:10;19.67;;;12.17;;
20114;SDS011;10218;42.874;25.320;2022-10-15T05:16:38;15.97;;;12.27;;
20114;SDS011;10218;42.874;25.320;2022-10-15T05:19:05;19.27;;;12.03;;
20114;SDS011;10218;42.874;25.320;2022-10-15T05:21:34;18.73;;;12.57;;
20114;SDS011;10218;42.874;25.320;2022-10-15T05:24:02;21.07;;;12.83;;
20114;SDS011;10218;42.874;25.320;2022-10-15T05:26:37;18.67;;;12.83;;
20114;SDS011;10218;42.874;25.320;2022-10-15T05:29:05;19.90;;;12.10;;
20114;SDS011;10218;42.874;25.320;2022-10-15T05:31:32;16.40;;;9.77;;
20114;SDS011;10218;42.874;25.320;2022-10-15T05:34:04;12.67;;;9.70;;
20114;SDS011;10218;42.874;25.320;2022-10-15T05:36:34;16.90;;;10.20;;
20114;SDS011;10218;42.874;25.320;2022-10-15T05:39:04;16.03;;;10.23;;
20114;SDS011;10218;42.874;25.320;2022-10-15T05:41:38;17.17;;;11.37;;
20114;SDS011;10218;42.874;25.320;2022-10-15T05:44:05;20.37;;;12.10;;
20114;SDS011;10218;42.874;25.320;2022-10-15T05:46:32;14.97;;;10.77;;
20114;SDS011;10218;42.874;25.320;2022-10-15T05:49:01;17.03;;;11.07;;
20114;SDS011;10218;42.874;25.320;2022-10-15T05:51:29;16.20;;;10.53;;
20114;SDS011;10218;42.874;25.320;2022-10-15T05:53:57;17.77;;;11.30;;
20114;SDS011;10218;42.874;25.320;2022-10-15T05:56:25;18.80;;;11.77;;
20114;SDS011;10218;42.874;25.320;2022-10-15T05:58:53;28.07;;;13.97;;
20114;SDS011;10218;42.874;25.320;2022-10-15T06:01:21;22.67;;;12.73;;
20114;SDS011;10218;42.874;25.320;2022-10-15T06:03:50;17.90;;;10.77;;
20114;SDS011;10218;42.874;25.320;2022-10-15T06:06:18;18.53;;;10.70;;
20114;SDS011;10218;42.874;25.320;2022-10-15T06:08:50;18.50;;;11.63;;
20114;SDS011;10218;42.874;25.320;2022-10-15T06:11:18;21.23;;;12.53;;
20114;SDS011;10218;42.874;25.320;2022-10-15T06:13:46;20.30;;;12.87;;
20114;SDS011;10218;42.874;25.320;2022-10-15T06:16:14;22.20;;;13.40;;
20114;SDS011;10218;42.874;25.320;2022-10-15T06:18:43;25.30;;;14.47;;
20114;SDS011;10218;42.874;25.320;2022-10-15T06:21:10;24.23;;;14.10;;
20114;SDS011;10218;42.874;25.320;2022-10-15T06:23:38;26.70;;;14.63;;
20114;SDS011;10218;42.874;25.320;2022-10-15T06:26:06;23.77;;;14.00;;
20114;SDS011;10218;42.874;25.320;2022-10-15T06:28:35;14.50;;;9.60;;
20114;SDS011;10218;42.874;25.320;2022-10-15T06:31:04;14.57;;;10.53;;
20114;SDS011;10218;42.874;25.320;2022-10-15T06:33:31;18.77;;;11.03;;
20114;SDS011;10218;42.874;25.320;2022-10-15T06:35:59;17.50;;;11.20;;
20114;SDS011;10218;42.874;25.320;2022-10-15T06:38:31;18.37;;;11.50;;
20114;SDS011;10218;42.874;25.320;2022-10-15T06:40:58;14.40;;;9.73;;
20114;SDS011;10218;42.874;25.320;2022-10-15T06:43:26;14.93;;;10.03;;
20114;SDS011;10218;42.874;25.320;2022-10-15T06:45:54;19.07;;;10.57;;
20114;SDS011;10218;42.874;25.320;2022-10-15T06:48:25;15.20;;;9.97;;
20114;SDS011;10218;42.874;25.320;2022-10-15T06:50:52;13.40;;;8.93;;
20114;SDS011;10218;42.874;25.320;2022-10-15T06:53:20;18.10;;;9.47;;
20114;SDS011;10218;42.874;25.320;2022-10-15T06:55:48;16.50;;;9.80;;
20114;SDS011;10218;42.874;25.320;2022-10-15T06:58:15;14.90;;;8.70;;
20114;SDS011;10218;42.874;25.320;2022-10-15T07:00:43;16.47;;;8.33;;
20114;SDS011;10218;42.874;25.320;2022-10-15T07:03:09;22.43;;;10.03;;
20114;SDS011;10218;42.874;25.320;2022-10-15T07:05:36;15.37;;;9.23;;
20114;SDS011;10218;42.874;25.320;2022-10-15T07:08:04;18.87;;;8.90;;
20114;SDS011;10218;42.874;25.320;2022-10-15T07:10:31;19.63;;;7.83;;
20114;SDS011;10218;42.874;25.320;2022-10-15T07:12:58;15.73;;;7.30;;
20114;SDS011;10218;42.874;25.320;2022-10-15T07:15:27;10.57;;;7.70;;
20114;SDS011;10218;42.874;25.320;2022-10-15T07:17:55;12.83;;;8.10;;
20114;SDS011;10218;42.874;25.320;2022-10-15T07:20:30;14.10;;;7.83;;
20114;SDS011;10218;42.874;25.320;2022-10-15T07:23:00;16.17;;;7.83;;
20114;SDS011;10218;42.874;25.320;2022-10-15T07:25:28;12.03;;;8.37;;
20114;SDS011;10218;42.874;25.320;2022-10-15T07:27:56;16.83;;;8.30;;
20114;SDS011;10218;42.874;25.320;2022-10-15T07:30:23;12.37;;;7.93;;
20114;SDS011;10218;42.874;25.320;2022-10-15T07:32:55;12.10;;;6.80;;
20114;SDS011;10218;42.874;25.320;2022-10-15T07:35:24;9.57;;;5.47;;
20114;SDS011;10218;42.874;25.320;2022-10-15T07:37:52;12.00;;;6.57;;
20114;SDS011;10218;42.874;25.320;2022-10-15T07:40:21;11.77;;;5.70;;
20114;SDS011;10218;42.874;25.320;2022-10-15T07:42:52;12.97;;;6.20;;
20114;SDS011;10218;42.874;25.320;2022-10-15T07:45:24;9.07;;;5.47;;
20114;SDS011;10218;42.874;25.320;2022-10-15T07:47:52;7.50;;;4.47;;
20114;SDS011;10218;42.874;25.320;2022-10-15T07:50:20;14.90;;;5.33;;
20114;SDS011;10218;42.874;25.320;2022-10-15T07:52:48;8.37;;;4.63;;
20114;SDS011;10218;42.874;25.320;2022-10-15T07:55:15;9.33;;;4.10;;
20114;SDS011;10218;42.874;25.320;2022-10-15T07:57:42;10.30;;;4.00;;
20114;SDS011;10218;42.874;25.320;2022-10-15T08:00:10;8.50;;;3.90;;
20114;SDS011;10218;42.874;25.320;2022-10-15T08:02:37;10.63;;;4.37;;
20114;SDS011;10218;42.874;25.320;2022-10-15T08:05:05;6.00;;;3.80;;
20114;SDS011;10218;42.874;25.320;2022-10-15T08:07:33;7.07;;;4.10;;
20114;SDS011;10218;42.874;25.320;2022-10-15T08:10:03;6.47;;;3.80;;
20114;SDS011;10218;42.874;25.320;2022-10-15T08:12:32;7.47;;;3.60;;
20114;SDS011;10218;42.874;25.320;2022-10-15T08:14:59;9.17;;;4.00;;
20114;SDS011;10218;42.874;25.320;2022-10-15T08:17:27;9.73;;;3.87;;
20114;SDS011;10218;42.874;25.320;2022-10-15T08:19:55;6.67;;;3.90;;
20114;SDS011;10218;42.874;25.320;2022-10-15T08:22:22;7.37;;;4.03;;
20114;SDS011;10218;42.874;25.320;2022-10-15T08:24:51;13.03;;;4.83;;
20114;SDS011;10218;42.874;25.320;2022-10-15T08:27:18;11.13;;;4.43;;
20114;SDS011;10218;42.874;25.320;2022-10-15T08:29:46;9.37;;;4.70;;
20114;SDS011;10218;42.874;25.320;2022-10-15T08:32:13;9.80;;;4.03;;
20114;SDS011;10218;42.874;25.320;2022-10-15T08:34:40;21.33;;;4.97;;
20114;SDS011;10218;42.874;25.320;2022-10-15T08:37:07;12.67;;;5.20;;
20114;SDS011;10218;42.874;25.320;2022-10-15T08:39:34;11.73;;;4.33;;
20114;SDS011;10218;42.874;25.320;2022-10-15T08:42:03;15.33;;;5.30;;
20114;SDS011;10218;42.874;25.320;2022-10-15T08:44:39;9.83;;;5.43;;
20114;SDS011;10218;42.874;25.320;2022-10-15T08:49:46;10.13;;;4.67;;
20114;SDS011;10218;42.874;25.320;2022-10-15T08:52:42;10.10;;;4.40;;
20114;SDS011;10218;42.874;25.320;2022-10-15T08:55:18;17.40;;;4.77;;
20114;SDS011;10218;42.874;25.320;2022-10-15T08:57:56;11.53;;;4.77;;
20114;SDS011;10218;42.874;25.320;2022-10-15T09:01:03;9.30;;;5.00;;
20114;SDS011;10218;42.874;25.320;2022-10-15T09:06:37;11.23;;;5.07;;
20114;SDS011;10218;42.874;25.320;2022-10-15T09:09:17;14.73;;;6.43;;
20114;SDS011;10218;42.874;25.320;2022-10-15T09:14:23;11.43;;;5.60;;
20114;SDS011;10218;42.874;25.320;2022-10-15T09:16:54;12.70;;;6.60;;
20114;SDS011;10218;42.874;25.320;2022-10-15T09:19:25;9.30;;;5.70;;
20114;SDS011;10218;42.874;25.320;2022-10-15T09:21:55;12.30;;;6.33;;
20114;SDS011;10218;42.874;25.320;2022-10-15T09:24:23;10.60;;;6.27;;
20114;SDS011;10218;42.874;25.320;2022-10-15T09:32:34;16.63;;;7.63;;
20114;SDS011;10218;42.874;25.320;2022-10-15T09:37:58;14.53;;;6.37;;
20114;SDS011;10218;42.874;25.320;2022-10-15T09:40:38;14.00;;;5.90;;
20114;SDS011;10218;42.874;25.320;2022-10-15T09:43:17;17.60;;;8.13;;
20114;SDS011;10218;42.874;25.320;2022-10-15T09:45:53;16.10;;;7.60;;
20114;SDS011;10218;42.874;25.320;2022-10-15T09:48:23;15.40;;;7.97;;
20114;SDS011;10218;42.874;25.320;2022-10-15T09:58:51;17.00;;;9.60;;
20114;SDS011;10218;42.874;25.320;2022-10-15T10:01:24;17.70;;;8.87;;
20114;SDS011;10218;42.874;25.320;2022-10-15T10:04:38;16.70;;;8.23;;
20114;SDS011;10218;42.874;25.320;2022-10-15T10:06:56;16.93;;;8.90;;
20114;SDS011;10218;42.874;25.320;2022-10-15T10:09:30;19.37;;;9.70;;
20114;SDS011;10218;42.874;25.320;2022-10-15T10:12:05;19.10;;;9.93;;
20114;SDS011;10218;42.874;25.320;2022-10-15T10:14:44;19.63;;;9.17;;
20114;SDS011;10218;42.874;25.320;2022-10-15T10:17:21;29.20;;;9.50;;
20114;SDS011;10218;42.874;25.320;2022-10-15T10:22:42;17.07;;;9.50;;
20114;SDS011;10218;42.874;25.320;2022-10-15T10:27:53;13.07;;;8.33;;
20114;SDS011;10218;42.874;25.320;2022-10-15T10:30:25;13.83;;;7.80;;
20114;SDS011;10218;42.874;25.320;2022-10-15T10:32:56;15.87;;;7.60;;
20114;SDS011;10218;42.874;25.320;2022-10-15T10:35:28;13.80;;;8.57;;
20114;SDS011;10218;42.874;25.320;2022-10-15T10:38:01;19.30;;;8.90;;
20114;SDS011;10218;42.874;25.320;2022-10-15T10:40:29;13.77;;;8.93;;
20114;SDS011;10218;42.874;25.320;2022-10-15T10:45:54;16.10;;;8.60;;
20114;SDS011;10218;42.874;25.320;2022-10-15T10:48:47;15.77;;;7.60;;
20114;SDS011;10218;42.874;25.320;2022-10-15T10:56:33;14.63;;;7.90;;
20114;SDS011;10218;42.874;25.320;2022-10-15T10:59:15;20.73;;;9.00;;
20114;SDS011;10218;42.874;25.320;2022-10-15T11:01:48;16.70;;;8.90;;
20114;SDS011;10218;42.874;25.320;2022-10-15T11:04:26;15.60;;;8.53;;
20114;SDS011;10218;42.874;25.320;2022-10-15T11:09:45;22.90;;;9.00;;
20114;SDS011;10218;42.874;25.320;2022-10-15T11:18:21;18.53;;;8.50;;
20114;SDS011;10218;42.874;25.320;2022-10-15T11:26:51;20.57;;;8.63;;
20114;SDS011;10218;42.874;25.320;2022-10-15T11:57:20;20.43;;;8.93;;
20114;SDS011;10218;42.874;25.320;2022-10-15T11:59:53;18.70;;;10.10;;
20114;SDS011;10218;42.874;25.320;2022-10-15T12:02:30;18.90;;;8.53;;
20114;SDS011;10218;42.874;25.320;2022-10-15T12:05:12;17.57;;;8.40;;
20114;SDS011;10218;42.874;25.320;2022-10-15T12:07:45;16.17;;;9.00;;
20114;SDS011;10218;42.874;25.320;2022-10-15T12:12:54;16.57;;;9.00;;
20114;SDS011;10218;42.874;25.320;2022-10-15T12:15:44;15.33;;;8.60;;
20114;SDS011;10218;42.874;25.320;2022-10-15T12:18:47;12.97;;;7.50;;
20114;SDS011;10218;42.874;25.320;2022-10-15T12:24:02;14.37;;;7.57;;
20114;SDS011;10218;42.874;25.320;2022-10-15T12:26:36;11.77;;;7.63;;
20114;SDS011;10218;42.874;25.320;2022-10-15T12:29:04;13.00;;;7.83;;
20114;SDS011;10218;42.874;25.320;2022-10-15T12:31:49;17.13;;;7.90;;
20114;SDS011;10218;42.874;25.320;2022-10-15T12:35:03;16.93;;;8.33;;
20114;SDS011;10218;42.874;25.320;2022-10-15T12:37:16;12.60;;;8.00;;
20114;SDS011;10218;42.874;25.320;2022-10-15T12:39:44;11.47;;;7.80;;
20114;SDS011;10218;42.874;25.320;2022-10-15T12:44:51;17.03;;;7.70;;
20114;SDS011;10218;42.874;25.320;2022-10-15T12:50:20;13.77;;;7.97;;
20114;SDS011;10218;42.874;25.320;2022-10-15T12:55:39;14.67;;;8.33;;
20114;SDS011;10218;42.874;25.320;2022-10-15T13:01:05;19.93;;;10.63;;
20114;SDS011;10218;42.874;25.320;2022-10-15T13:03:55;18.03;;;11.13;;
20114;SDS011;10218;42.874;25.320;2022-10-15T13:06:29;18.07;;;7.57;;
20114;SDS011;10218;42.874;25.320;2022-10-15T13:11:34;13.47;;;7.43;;
20114;SDS011;10218;42.874;25.320;2022-10-15T13:16:43;13.40;;;6.77;;
20114;SDS011;10218;42.874;25.320;2022-10-15T13:19:16;13.13;;;6.70;;
20114;SDS011;10218;42.874;25.320;2022-10-15T13:21:48;11.30;;;6.63;;
20114;SDS011;10218;42.874;25.320;2022-10-15T13:24:18;13.13;;;7.77;;
20114;SDS011;10218;42.874;25.320;2022-10-15T13:26:48;12.77;;;7.73;;
20114;SDS011;10218;42.874;25.320;2022-10-15T13:29:17;31.47;;;20.20;;
20114;SDS011;10218;42.874;25.320;2022-10-15T13:31:49;60.40;;;37.17;;
20114;SDS011;10218;42.874;25.320;2022-10-15T13:34:32;29.47;;;18.93;;
20114;SDS011;10218;42.874;25.320;2022-10-15T13:37:02;14.87;;;6.90;;
20114;SDS011;10218;42.874;25.320;2022-10-15T13:44:41;14.40;;;7.03;;
20114;SDS011;10218;42.874;25.320;2022-10-15T13:47:21;12.57;;;7.87;;
20114;SDS011;10218;42.874;25.320;2022-10-15T13:49:50;14.07;;;8.57;;
20114;SDS011;10218;42.874;25.320;2022-10-15T13:52:42;17.47;;;10.70;;
20114;SDS011;10218;42.874;25.320;2022-10-15T13:55:21;16.90;;;8.23;;
20114;SDS011;10218;42.874;25.320;2022-10-15T13:58:01;12.80;;;8.90;;
20114;SDS011;10218;42.874;25.320;2022-10-15T14:00:31;10.77;;;7.23;;
20114;SDS011;10218;42.874;25.320;2022-10-15T14:05:46;17.93;;;7.13;;
20114;SDS011;10218;42.874;25.320;2022-10-15T14:08:23;15.93;;;9.27;;
20114;SDS011;10218;42.874;25.320;2022-10-15T14:10:52;14.70;;;8.87;;
20114;SDS011;10218;42.874;25.320;2022-10-15T14:13:21;13.67;;;7.00;;
20114;SDS011;10218;42.874;25.320;2022-10-15T14:15:51;14.50;;;9.60;;
20114;SDS011;10218;42.874;25.320;2022-10-15T14:18:42;22.07;;;10.80;;
20114;SDS011;10218;42.874;25.320;2022-10-15T14:21:14;15.47;;;9.40;;
20114;SDS011;10218;42.874;25.320;2022-10-15T14:23:45;17.10;;;10.67;;
20114;SDS011;10218;42.874;25.320;2022-10-15T14:26:14;14.67;;;8.13;;
20114;SDS011;10218;42.874;25.320;2022-10-15T14:28:49;9.97;;;7.13;;
20114;SDS011;10218;42.874;25.320;2022-10-15T14:31:27;15.37;;;8.00;;
20114;SDS011;10218;42.874;25.320;2022-10-15T14:33:57;15.57;;;7.10;;
20114;SDS011;10218;42.874;25.320;2022-10-15T14:36:29;14.47;;;8.60;;
20114;SDS011;10218;42.874;25.320;2022-10-15T14:39:42;16.27;;;9.33;;
20114;SDS011;10218;42.874;25.320;2022-10-15T14:41:58;16.33;;;8.00;;
20114;SDS011;10218;42.874;25.320;2022-10-15T14:44:41;15.13;;;10.10;;
20114;SDS011;10218;42.874;25.320;2022-10-15T14:47:15;11.43;;;7.47;;
20114;SDS011;10218;42.874;25.320;2022-10-15T14:49:44;14.30;;;10.10;;
20114;SDS011;10218;42.874;25.320;2022-10-15T14:52:12;15.17;;;9.30;;
20114;SDS011;10218;42.874;25.320;2022-10-15T14:54:44;15.30;;;9.77;;
20114;SDS011;10218;42.874;25.320;2022-10-15T14:57:23;16.77;;;9.63;;
20114;SDS011;10218;42.874;25.320;2022-10-15T14:59:52;16.40;;;9.77;;
20114;SDS011;10218;42.874;25.320;2022-10-15T15:02:22;16.47;;;9.13;;
20114;SDS011;10218;42.874;25.320;2022-10-15T15:05:16;18.30;;;10.00;;
20114;SDS011;10218;42.874;25.320;2022-10-15T15:07:40;17.13;;;11.60;;
20114;SDS011;10218;42.874;25.320;2022-10-15T15:10:07;17.80;;;11.47;;
20114;SDS011;10218;42.874;25.320;2022-10-15T15:12:37;29.00;;;17.33;;
20114;SDS011;10218;42.874;25.320;2022-10-15T15:15:12;23.90;;;15.00;;
20114;SDS011;10218;42.874;25.320;2022-10-15T15:17:44;26.03;;;17.90;;
20114;SDS011;10218;42.874;25.320;2022-10-15T15:20:12;35.63;;;21.30;;
20114;SDS011;10218;42.874;25.320;2022-10-15T15:22:40;22.33;;;14.20;;
20114;SDS011;10218;42.874;25.320;2022-10-15T15:25:15;32.47;;;16.97;;
20114;SDS011;10218;42.874;25.320;2022-10-15T15:28:00;30.17;;;17.33;;
20114;SDS011;10218;42.874;25.320;2022-10-15T15:30:28;30.03;;;16.80;;
20114;SDS011;10218;42.874;25.320;2022-10-15T15:32:58;28.03;;;17.50;;
20114;SDS011;10218;42.874;25.320;2022-10-15T15:35:32;32.23;;;19.00;;
20114;SDS011;10218;42.874;25.320;2022-10-15T15:38:05;32.50;;;18.80;;
20114;SDS011;10218;42.874;25.320;2022-10-15T15:40:34;28.90;;;18.40;;
20114;SDS011;10218;42.874;25.320;2022-10-15T15:43:02;33.57;;;19.73;;
20114;SDS011;10218;42.874;25.320;2022-10-15T15:45:29;34.63;;;20.47;;
20114;SDS011;10218;42.874;25.320;2022-10-15T15:47:56;32.33;;;20.57;;
20114;SDS011;10218;42.874;25.320;2022-10-15T15:50:27;32.97;;;19.93;;
20114;SDS011;10218;42.874;25.320;2022-10-15T15:52:55;36.30;;;19.70;;
20114;SDS011;10218;42.874;25.320;2022-10-15T15:55:24;31.73;;;19.27;;
20114;SDS011;10218;42.874;25.320;2022-10-15T15:57:52;30.27;;;17.90;;
20114;SDS011;10218;42.874;25.320;2022-10-15T16:00:19;31.23;;;18.73;;
20114;SDS011;10218;42.874;25.320;2022-10-15T16:02:47;30.97;;;19.50;;
20114;SDS011;10218;42.874;25.320;2022-10-15T16:05:15;33.80;;;18.57;;
20114;SDS011;10218;42.874;25.320;2022-10-15T16:07:42;36.93;;;19.80;;
20114;SDS011;10218;42.874;25.320;2022-10-15T16:10:10;31.77;;;18.00;;
20114;SDS011;10218;42.874;25.320;2022-10-15T16:12:38;36.97;;;20.27;;
20114;SDS011;10218;42.874;25.320;2022-10-15T16:15:06;32.27;;;18.03;;
20114;SDS011;10218;42.874;25.320;2022-10-15T16:17:34;36.13;;;18.60;;
20114;SDS011;10218;42.874;25.320;2022-10-15T16:20:02;25.77;;;17.30;;
20114;SDS011;10218;42.874;25.320;2022-10-15T16:22:30;22.03;;;13.20;;
20114;SDS011;10218;42.874;25.320;2022-10-15T16:24:57;24.30;;;15.37;;
20114;SDS011;10218;42.874;25.320;2022-10-15T16:27:24;21.53;;;13.00;;
20114;SDS011;10218;42.874;25.320;2022-10-15T16:29:52;25.00;;;16.13;;
20114;SDS011;10218;42.874;25.320;2022-10-15T16:32:19;24.07;;;15.60;;
20114;SDS011;10218;42.874;25.320;2022-10-15T16:34:46;26.93;;;17.30;;
20114;SDS011;10218;42.874;25.320;2022-10-15T16:37:13;30.27;;;17.53;;
20114;SDS011;10218;42.874;25.320;2022-10-15T16:39:40;32.27;;;19.37;;
20114;SDS011;10218;42.874;25.320;2022-10-15T16:42:08;33.73;;;19.63;;
20114;SDS011;10218;42.874;25.320;2022-10-15T16:44:35;32.67;;;19.77;;
20114;SDS011;10218;42.874;25.320;2022-10-15T16:47:02;31.73;;;20.47;;
20114;SDS011;10218;42.874;25.320;2022-10-15T16:49:29;35.00;;;20.33;;